sensor_id;sensor_type;location;lat;lon;timestamp;temperature;humidity
68276;DHT22;55106;51.438;-0.098;2022-09-27T00:01:08;10.45;85.21
68276;DHT22;55106;51.438;-0.098;2022-09-27T00:03:34;10.41;85.69
68276;DHT22;55106;51.438;-0.098;2022-09-27T00:06:22;10.40;85.47
68276;DHT22;55106;51.438;-0.098;2022-09-27T00:08:47;10.40;85.31
68276;DHT22;55106;51.438;-0.098;2022-09-27T00:11:34;10.40;85.55
68276;DHT22;55106;51.438;-0.098;2022-09-27T00:14:01;10.45;85.03
68276;DHT22;55106;51.438;-0.098;2022-09-27T00:16:29;10.44;85.24
68276;DHT22;55106;51.438;-0.098;2022-09-27T00:18:59;10.48;84.84
68276;DHT22;55106;51.438;-0.098;2022-09-27T00:21:24;10.52;84.66
68276;DHT22;55106;51.438;-0.098;2022-09-27T00:23:50;10.55;84.72
68276;DHT22;55106;51.438;-0.098;2022-09-27T00:26:15;10.52;84.91
68276;DHT22;55106;51.438;-0.098;2022-09-27T00:28:40;10.52;84.43
68276;DHT22;55106;51.438;-0.098;2022-09-27T00:31:32;10.56;84.65
68276;DHT22;55106;51.438;-0.098;2022-09-27T00:34:00;10.54;84.72
68276;DHT22;55106;51.438;-0.098;2022-09-27T00:36:27;10.56;84.88
68276;DHT22;55106;51.438;-0.098;2022-09-27T00:38:53;10.56;84.71
68276;DHT22;55106;51.438;-0.098;2022-09-27T00:41:24;10.55;84.47
68276;DHT22;55106;51.438;-0.098;2022-09-27T00:43:51;10.56;84.23
68276;DHT22;55106;51.438;-0.098;2022-09-27T00:46:40;10.59;84.45
68276;DHT22;55106;51.438;-0.098;2022-09-27T00:49:27;10.59;84.20
68276;DHT22;55106;51.438;-0.098;2022-09-27T00:52:06;10.54;84.38
68276;DHT22;55106;51.438;-0.098;2022-09-27T00:54:33;10.45;84.49
68276;DHT22;55106;51.438;-0.098;2022-09-27T00:57:01;10.34;85.02
68276;DHT22;55106;51.438;-0.098;2022-09-27T00:59:35;10.25;85.26
68276;DHT22;55106;51.438;-0.098;2022-09-27T01:02:04;10.13;85.91
68276;DHT22;55106;51.438;-0.098;2022-09-27T01:04:30;10.11;86.46
68276;DHT22;55106;51.438;-0.098;2022-09-27T01:06:57;10.07;86.61
68276;DHT22;55106;51.438;-0.098;2022-09-27T01:09:23;10.13;86.43
68276;DHT22;55106;51.438;-0.098;2022-09-27T01:17:48;10.06;86.85
68276;DHT22;55106;51.438;-0.098;2022-09-27T01:29:08;10.00;86.81
68276;DHT22;55106;51.438;-0.098;2022-09-27T01:39:59;10.14;86.39
68276;DHT22;55106;51.438;-0.098;2022-09-27T01:42:52;10.18;86.15
68276;DHT22;55106;51.438;-0.098;2022-09-27T01:48:07;10.18;85.35
68276;DHT22;55106;51.438;-0.098;2022-09-27T01:50:43;10.17;85.81
68276;DHT22;55106;51.438;-0.098;2022-09-27T01:53:17;10.08;86.30
68276;DHT22;55106;51.438;-0.098;2022-09-27T01:55:47;10.01;86.56
68276;DHT22;55106;51.438;-0.098;2022-09-27T01:58:19;9.91;86.94
68276;DHT22;55106;51.438;-0.098;2022-09-27T02:00:49;9.76;86.98
68276;DHT22;55106;51.438;-0.098;2022-09-27T02:03:19;9.66;87.35
68276;DHT22;55106;51.438;-0.098;2022-09-27T02:05:55;9.51;87.97
68276;DHT22;55106;51.438;-0.098;2022-09-27T02:08:32;9.46;87.75
68276;DHT22;55106;51.438;-0.098;2022-09-27T02:11:05;9.42;87.32
68276;DHT22;55106;51.438;-0.098;2022-09-27T02:13:39;9.32;87.90
68276;DHT22;55106;51.438;-0.098;2022-09-27T02:16:17;9.24;88.16
68276;DHT22;55106;51.438;-0.098;2022-09-27T02:21:46;9.21;87.82
68276;DHT22;55106;51.438;-0.098;2022-09-27T02:24:19;9.15;88.08
68276;DHT22;55106;51.438;-0.098;2022-09-27T02:26:48;9.20;87.71
68276;DHT22;55106;51.438;-0.098;2022-09-27T02:29:27;9.17;87.58
68276;DHT22;55106;51.438;-0.098;2022-09-27T02:31:56;9.14;87.55
68276;DHT22;55106;51.438;-0.098;2022-09-27T02:34:23;9.05;88.00
68276;DHT22;55106;51.438;-0.098;2022-09-27T02:36:50;8.96;88.33
68276;DHT22;55106;51.438;-0.098;2022-09-27T02:39:18;8.91;88.71
68276;DHT22;55106;51.438;-0.098;2022-09-27T02:41:43;8.90;88.54
68276;DHT22;55106;51.438;-0.098;2022-09-27T02:44:11;8.88;88.33
68276;DHT22;55106;51.438;-0.098;2022-09-27T02:46:55;8.83;89.16
68276;DHT22;55106;51.438;-0.098;2022-09-27T03:03:46;8.49;90.08
68276;DHT22;55106;51.438;-0.098;2022-09-27T03:06:15;8.46;89.90
68276;DHT22;55106;51.438;-0.098;2022-09-27T03:08:42;8.38;89.91
68276;DHT22;55106;51.438;-0.098;2022-09-27T03:11:08;8.32;90.34
68276;DHT22;55106;51.438;-0.098;2022-09-27T03:13:34;8.25;90.41
68276;DHT22;55106;51.438;-0.098;2022-09-27T03:16:03;8.25;90.61
68276;DHT22;55106;51.438;-0.098;2022-09-27T03:18:28;8.25;90.51
68276;DHT22;55106;51.438;-0.098;2022-09-27T03:20:54;8.21;90.65
68276;DHT22;55106;51.438;-0.098;2022-09-27T03:23:20;8.20;90.58
68276;DHT22;55106;51.438;-0.098;2022-09-27T03:25:45;8.22;90.59
68276;DHT22;55106;51.438;-0.098;2022-09-27T03:28:11;8.25;90.47
68276;DHT22;55106;51.438;-0.098;2022-09-27T03:30:36;8.32;89.58
68276;DHT22;55106;51.438;-0.098;2022-09-27T03:33:02;8.31;89.78
68276;DHT22;55106;51.438;-0.098;2022-09-27T03:35:28;8.22;89.80
68276;DHT22;55106;51.438;-0.098;2022-09-27T03:37:53;8.25;89.95
68276;DHT22;55106;51.438;-0.098;2022-09-27T03:40:19;8.22;89.90
68276;DHT22;55106;51.438;-0.098;2022-09-27T03:42:44;8.20;89.99
68276;DHT22;55106;51.438;-0.098;2022-09-27T03:45:09;8.18;89.92
68276;DHT22;55106;51.438;-0.098;2022-09-27T03:47:39;8.20;89.97
68276;DHT22;55106;51.438;-0.098;2022-09-27T03:50:04;8.15;89.98
68276;DHT22;55106;51.438;-0.098;2022-09-27T03:52:30;8.07;89.73
68276;DHT22;55106;51.438;-0.098;2022-09-27T03:54:56;7.99;90.21
68276;DHT22;55106;51.438;-0.098;2022-09-27T03:57:21;7.99;90.26
68276;DHT22;55106;51.438;-0.098;2022-09-27T03:59:46;7.99;89.96
68276;DHT22;55106;51.438;-0.098;2022-09-27T04:02:12;8.01;90.06
68276;DHT22;55106;51.438;-0.098;2022-09-27T04:04:37;8.02;89.79
68276;DHT22;55106;51.438;-0.098;2022-09-27T04:07:03;7.93;89.97
68276;DHT22;55106;51.438;-0.098;2022-09-27T04:09:28;7.98;89.96
68276;DHT22;55106;51.438;-0.098;2022-09-27T04:11:53;7.94;89.96
68276;DHT22;55106;51.438;-0.098;2022-09-27T04:14:19;7.94;89.74
68276;DHT22;55106;51.438;-0.098;2022-09-27T04:16:44;7.83;90.20
68276;DHT22;55106;51.438;-0.098;2022-09-27T04:19:09;7.86;90.39
68276;DHT22;55106;51.438;-0.098;2022-09-27T04:21:35;7.86;90.24
68276;DHT22;55106;51.438;-0.098;2022-09-27T04:24:00;7.83;90.15
68276;DHT22;55106;51.438;-0.098;2022-09-27T04:26:26;7.86;90.05
68276;DHT22;55106;51.438;-0.098;2022-09-27T04:28:52;7.88;89.99
68276;DHT22;55106;51.438;-0.098;2022-09-27T04:31:18;7.93;89.68
68276;DHT22;55106;51.438;-0.098;2022-09-27T04:33:43;7.98;89.65
68276;DHT22;55106;51.438;-0.098;2022-09-27T04:36:17;8.01;89.19
68276;DHT22;55106;51.438;-0.098;2022-09-27T04:38:57;7.99;89.62
68276;DHT22;55106;51.438;-0.098;2022-09-27T04:41:23;8.02;89.80
68276;DHT22;55106;51.438;-0.098;2022-09-27T04:43:50;8.15;89.91
68276;DHT22;55106;51.438;-0.098;2022-09-27T04:46:16;8.22;89.25
68276;DHT22;55106;51.438;-0.098;2022-09-27T04:48:42;8.25;88.85
68276;DHT22;55106;51.438;-0.098;2022-09-27T04:51:08;8.34;88.70
68276;DHT22;55106;51.438;-0.098;2022-09-27T04:53:34;8.48;88.20
68276;DHT22;55106;51.438;-0.098;2022-09-27T04:55:59;8.49;88.20
68276;DHT22;55106;51.438;-0.098;2022-09-27T04:58:31;8.48;88.16
68276;DHT22;55106;51.438;-0.098;2022-09-27T05:00:58;8.46;88.58
68276;DHT22;55106;51.438;-0.098;2022-09-27T05:03:24;8.32;88.49
68276;DHT22;55106;51.438;-0.098;2022-09-27T05:05:49;8.26;88.96
68276;DHT22;55106;51.438;-0.098;2022-09-27T05:08:15;8.18;89.31
68276;DHT22;55106;51.438;-0.098;2022-09-27T05:10:40;8.08;89.63
68276;DHT22;55106;51.438;-0.098;2022-09-27T05:13:06;8.01;90.06
68276;DHT22;55106;51.438;-0.098;2022-09-27T05:15:31;8.01;90.19
68276;DHT22;55106;51.438;-0.098;2022-09-27T05:17:57;7.97;90.50
68276;DHT22;55106;51.438;-0.098;2022-09-27T05:20:23;7.99;90.74
68276;DHT22;55106;51.438;-0.098;2022-09-27T05:22:50;8.14;90.73
68276;DHT22;55106;51.438;-0.098;2022-09-27T05:25:16;8.15;90.42
68276;DHT22;55106;51.438;-0.098;2022-09-27T05:27:42;8.21;90.31
68276;DHT22;55106;51.438;-0.098;2022-09-27T05:30:07;8.25;90.18
68276;DHT22;55106;51.438;-0.098;2022-09-27T05:32:33;8.35;90.03
68276;DHT22;55106;51.438;-0.098;2022-09-27T05:34:59;8.41;89.69
68276;DHT22;55106;51.438;-0.098;2022-09-27T05:37:24;8.48;89.27
68276;DHT22;55106;51.438;-0.098;2022-09-27T05:39:50;8.56;89.08
68276;DHT22;55106;51.438;-0.098;2022-09-27T05:42:16;8.57;89.48
68276;DHT22;55106;51.438;-0.098;2022-09-27T05:44:41;8.59;88.96
68276;DHT22;55106;51.438;-0.098;2022-09-27T05:47:08;8.69;88.89
68276;DHT22;55106;51.438;-0.098;2022-09-27T05:49:34;8.72;88.60
68276;DHT22;55106;51.438;-0.098;2022-09-27T05:51:59;8.74;88.53
68276;DHT22;55106;51.438;-0.098;2022-09-27T05:54:25;8.83;88.09
68276;DHT22;55106;51.438;-0.098;2022-09-27T05:56:55;8.88;88.26
68276;DHT22;55106;51.438;-0.098;2022-09-27T05:59:25;8.94;87.51
68276;DHT22;55106;51.438;-0.098;2022-09-27T06:01:51;9.03;87.22
68276;DHT22;55106;51.438;-0.098;2022-09-27T06:04:17;9.05;87.02
68276;DHT22;55106;51.438;-0.098;2022-09-27T06:06:42;9.08;86.97
68276;DHT22;55106;51.438;-0.098;2022-09-27T06:09:13;9.14;86.61
68276;DHT22;55106;51.438;-0.098;2022-09-27T06:11:39;9.24;86.50
68276;DHT22;55106;51.438;-0.098;2022-09-27T06:14:05;9.25;85.72
68276;DHT22;55106;51.438;-0.098;2022-09-27T06:16:30;9.28;85.41
68276;DHT22;55106;51.438;-0.098;2022-09-27T06:18:56;9.32;85.54
68276;DHT22;55106;51.438;-0.098;2022-09-27T06:21:22;9.39;84.97
68276;DHT22;55106;51.438;-0.098;2022-09-27T06:23:47;9.45;84.71
68276;DHT22;55106;51.438;-0.098;2022-09-27T06:26:13;9.45;84.61
68276;DHT22;55106;51.438;-0.098;2022-09-27T06:28:39;9.55;84.80
68276;DHT22;55106;51.438;-0.098;2022-09-27T06:31:05;9.53;84.50
68276;DHT22;55106;51.438;-0.098;2022-09-27T06:33:33;9.58;84.47
68276;DHT22;55106;51.438;-0.098;2022-09-27T06:36:06;9.59;84.57
68276;DHT22;55106;51.438;-0.098;2022-09-27T06:38:32;9.60;84.58
68276;DHT22;55106;51.438;-0.098;2022-09-27T06:41:00;9.63;84.22
68276;DHT22;55106;51.438;-0.098;2022-09-27T06:43:26;9.68;84.09
68276;DHT22;55106;51.438;-0.098;2022-09-27T06:45:52;9.72;84.10
68276;DHT22;55106;51.438;-0.098;2022-09-27T06:48:18;9.78;83.12
68276;DHT22;55106;51.438;-0.098;2022-09-27T06:50:45;9.80;83.08
68276;DHT22;55106;51.438;-0.098;2022-09-27T06:53:12;9.82;83.10
68276;DHT22;55106;51.438;-0.098;2022-09-27T06:55:38;9.86;83.31
68276;DHT22;55106;51.438;-0.098;2022-09-27T06:58:05;9.86;82.69
68276;DHT22;55106;51.438;-0.098;2022-09-27T07:00:52;9.90;82.95
68276;DHT22;55106;51.438;-0.098;2022-09-27T07:03:22;9.90;82.97
68276;DHT22;55106;51.438;-0.098;2022-09-27T07:06:01;9.94;83.19
68276;DHT22;55106;51.438;-0.098;2022-09-27T07:08:28;9.97;82.64
68276;DHT22;55106;51.438;-0.098;2022-09-27T07:11:02;10.01;82.75
68276;DHT22;55106;51.438;-0.098;2022-09-27T07:13:28;10.01;82.61
68276;DHT22;55106;51.438;-0.098;2022-09-27T07:15:55;10.13;82.45
68276;DHT22;55106;51.438;-0.098;2022-09-27T07:18:21;10.20;82.27
68276;DHT22;55106;51.438;-0.098;2022-09-27T07:20:46;10.27;81.78
68276;DHT22;55106;51.438;-0.098;2022-09-27T07:23:13;10.25;82.11
68276;DHT22;55106;51.438;-0.098;2022-09-27T07:25:38;10.34;81.79
68276;DHT22;55106;51.438;-0.098;2022-09-27T07:28:06;10.37;81.87
68276;DHT22;55106;51.438;-0.098;2022-09-27T07:30:33;10.42;82.39
68276;DHT22;55106;51.438;-0.098;2022-09-27T07:33:00;10.44;82.42
68276;DHT22;55106;51.438;-0.098;2022-09-27T07:35:27;10.54;82.19
68276;DHT22;55106;51.438;-0.098;2022-09-27T07:37:54;10.61;82.34
68276;DHT22;55106;51.438;-0.098;2022-09-27T07:40:20;10.68;82.26
68276;DHT22;55106;51.438;-0.098;2022-09-27T07:42:45;10.76;82.30
68276;DHT22;55106;51.438;-0.098;2022-09-27T07:45:11;10.88;81.82
68276;DHT22;55106;51.438;-0.098;2022-09-27T07:47:38;10.93;81.33
68276;DHT22;55106;51.438;-0.098;2022-09-27T07:50:04;11.02;81.02
68276;DHT22;55106;51.438;-0.098;2022-09-27T07:52:38;11.06;81.05
68276;DHT22;55106;51.438;-0.098;2022-09-27T07:55:04;11.04;82.54
68276;DHT22;55106;51.438;-0.098;2022-09-27T07:57:30;11.14;82.66
68276;DHT22;55106;51.438;-0.098;2022-09-27T07:59:55;11.34;82.61
68276;DHT22;55106;51.438;-0.098;2022-09-27T08:02:20;11.60;81.71
68276;DHT22;55106;51.438;-0.098;2022-09-27T08:04:46;11.71;81.07
68276;DHT22;55106;51.438;-0.098;2022-09-27T08:07:12;11.86;81.39
68276;DHT22;55106;51.438;-0.098;2022-09-27T08:09:38;11.91;80.45
68276;DHT22;55106;51.438;-0.098;2022-09-27T08:12:03;11.95;79.17
68276;DHT22;55106;51.438;-0.098;2022-09-27T08:14:29;12.02;79.19
68276;DHT22;55106;51.438;-0.098;2022-09-27T08:16:55;12.03;78.97
68276;DHT22;55106;51.438;-0.098;2022-09-27T08:19:20;12.03;79.43
68276;DHT22;55106;51.438;-0.098;2022-09-27T08:21:46;12.06;79.08
68276;DHT22;55106;51.438;-0.098;2022-09-27T08:24:12;11.98;79.26
68276;DHT22;55106;51.438;-0.098;2022-09-27T08:26:37;12.10;79.07
68276;DHT22;55106;51.438;-0.098;2022-09-27T08:29:03;12.36;79.35
68276;DHT22;55106;51.438;-0.098;2022-09-27T08:31:28;12.77;77.21
68276;DHT22;55106;51.438;-0.098;2022-09-27T08:33:53;13.11;75.91
68276;DHT22;55106;51.438;-0.098;2022-09-27T08:36:19;13.52;75.97
68276;DHT22;55106;51.438;-0.098;2022-09-27T08:38:51;13.73;73.69
68276;DHT22;55106;51.438;-0.098;2022-09-27T08:41:25;13.67;74.78
68276;DHT22;55106;51.438;-0.098;2022-09-27T08:49:44;13.53;74.71
68276;DHT22;55106;51.438;-0.098;2022-09-27T08:52:18;13.95;73.95
68276;DHT22;55106;51.438;-0.098;2022-09-27T08:54:45;14.21;72.64
68276;DHT22;55106;51.438;-0.098;2022-09-27T08:57:12;14.65;71.41
68276;DHT22;55106;51.438;-0.098;2022-09-27T08:59:44;14.43;71.35
68276;DHT22;55106;51.438;-0.098;2022-09-27T09:02:19;14.45;72.08
68276;DHT22;55106;51.438;-0.098;2022-09-27T09:04:48;15.23;69.88
68276;DHT22;55106;51.438;-0.098;2022-09-27T09:07:29;15.78;68.09
68276;DHT22;55106;51.438;-0.098;2022-09-27T09:12:51;16.09;67.03
68276;DHT22;55106;51.438;-0.098;2022-09-27T09:15:37;15.52;66.90
68276;DHT22;55106;51.438;-0.098;2022-09-27T09:24:05;14.80;70.04
68276;DHT22;55106;51.438;-0.098;2022-09-27T09:26:48;15.52;68.50
68276;DHT22;55106;51.438;-0.098;2022-09-27T09:32:27;15.42;68.55
68276;DHT22;55106;51.438;-0.098;2022-09-27T09:35:00;14.88;69.70
68276;DHT22;55106;51.438;-0.098;2022-09-27T09:37:40;14.52;71.05
68276;DHT22;55106;51.438;-0.098;2022-09-27T09:45:37;14.19;72.16
68276;DHT22;55106;51.438;-0.098;2022-09-27T09:50:37;14.11;72.68
68276;DHT22;55106;51.438;-0.098;2022-09-27T09:53:14;13.73;72.96
68276;DHT22;55106;51.438;-0.098;2022-09-27T09:55:42;13.75;74.17
68276;DHT22;55106;51.438;-0.098;2022-09-27T09:58:30;13.63;74.15
68276;DHT22;55106;51.438;-0.098;2022-09-27T10:01:10;13.74;74.57
68276;DHT22;55106;51.438;-0.098;2022-09-27T10:03:37;13.67;74.43
68276;DHT22;55106;51.438;-0.098;2022-09-27T10:06:02;13.75;75.14
68276;DHT22;55106;51.438;-0.098;2022-09-27T10:08:28;13.78;74.20
68276;DHT22;55106;51.438;-0.098;2022-09-27T10:10:53;13.80;74.43
68276;DHT22;55106;51.438;-0.098;2022-09-27T10:13:20;13.47;74.57
68276;DHT22;55106;51.438;-0.098;2022-09-27T10:16:13;13.47;79.10
68276;DHT22;55106;51.438;-0.098;2022-09-27T10:18:41;13.49;80.96
68276;DHT22;55106;51.438;-0.098;2022-09-27T10:21:14;13.80;79.55
68276;DHT22;55106;51.438;-0.098;2022-09-27T10:24:00;14.63;75.44
68276;DHT22;55106;51.438;-0.098;2022-09-27T10:26:28;15.27;75.27
68276;DHT22;55106;51.438;-0.098;2022-09-27T10:28:54;15.38;73.03
68276;DHT22;55106;51.438;-0.098;2022-09-27T10:31:20;15.39;73.14
68276;DHT22;55106;51.438;-0.098;2022-09-27T10:33:58;15.51;70.64
68276;DHT22;55106;51.438;-0.098;2022-09-27T10:36:31;15.54;71.77
68276;DHT22;55106;51.438;-0.098;2022-09-27T10:38:59;15.10;70.88
68276;DHT22;55106;51.438;-0.098;2022-09-27T10:41:45;14.46;71.38
68276;DHT22;55106;51.438;-0.098;2022-09-27T10:46:50;14.01;72.83
68276;DHT22;55106;51.438;-0.098;2022-09-27T10:49:25;13.91;73.96
68276;DHT22;55106;51.438;-0.098;2022-09-27T10:51:56;14.01;74.27
68276;DHT22;55106;51.438;-0.098;2022-09-27T10:54:34;14.28;73.68
68276;DHT22;55106;51.438;-0.098;2022-09-27T10:57:03;14.42;73.26
68276;DHT22;55106;51.438;-0.098;2022-09-27T10:59:33;14.46;72.94
68276;DHT22;55106;51.438;-0.098;2022-09-27T11:02:00;14.36;73.71
68276;DHT22;55106;51.438;-0.098;2022-09-27T11:04:32;14.59;73.10
68276;DHT22;55106;51.438;-0.098;2022-09-27T11:07:18;14.62;72.78
68276;DHT22;55106;51.438;-0.098;2022-09-27T11:09:50;14.91;71.87
68276;DHT22;55106;51.438;-0.098;2022-09-27T11:12:17;15.39;71.40
68276;DHT22;55106;51.438;-0.098;2022-09-27T11:14:54;15.31;70.53
68276;DHT22;55106;51.438;-0.098;2022-09-27T11:17:30;15.06;71.77
68276;DHT22;55106;51.438;-0.098;2022-09-27T11:20:03;14.75;71.24
68276;DHT22;55106;51.438;-0.098;2022-09-27T11:28:03;12.94;83.09
68276;DHT22;55106;51.438;-0.098;2022-09-27T11:30:52;12.44;86.31
68276;DHT22;55106;51.438;-0.098;2022-09-27T11:36:32;12.18;89.00
68276;DHT22;55106;51.438;-0.098;2022-09-27T11:39:30;12.39;90.48
68276;DHT22;55106;51.438;-0.098;2022-09-27T11:46:00;12.36;87.17
68276;DHT22;55106;51.438;-0.098;2022-09-27T11:50:56;12.08;87.97
68276;DHT22;55106;51.438;-0.098;2022-09-27T11:56:05;11.95;88.91
68276;DHT22;55106;51.438;-0.098;2022-09-27T11:58:47;12.05;89.67
68276;DHT22;55106;51.438;-0.098;2022-09-27T12:01:31;12.25;89.64
68276;DHT22;55106;51.438;-0.098;2022-09-27T12:06:55;12.63;89.59
68276;DHT22;55106;51.438;-0.098;2022-09-27T12:09:29;12.69;88.81
68276;DHT22;55106;51.438;-0.098;2022-09-27T12:12:09;12.85;88.88
68276;DHT22;55106;51.438;-0.098;2022-09-27T12:14:41;12.60;87.09
68276;DHT22;55106;51.438;-0.098;2022-09-27T12:17:26;12.83;87.12
68276;DHT22;55106;51.438;-0.098;2022-09-27T12:19:56;12.77;87.88
68276;DHT22;55106;51.438;-0.098;2022-09-27T12:22:29;13.01;87.56
68276;DHT22;55106;51.438;-0.098;2022-09-27T12:24:57;12.78;86.11
68276;DHT22;55106;51.438;-0.098;2022-09-27T12:27:36;12.71;87.17
68276;DHT22;55106;51.438;-0.098;2022-09-27T12:30:03;12.77;87.69
68276;DHT22;55106;51.438;-0.098;2022-09-27T12:32:55;12.73;86.09
68276;DHT22;55106;51.438;-0.098;2022-09-27T12:35:28;12.92;86.52
68276;DHT22;55106;51.438;-0.098;2022-09-27T12:38:07;13.15;86.88
68276;DHT22;55106;51.438;-0.098;2022-09-27T12:40:38;12.99;85.11
68276;DHT22;55106;51.438;-0.098;2022-09-27T12:43:22;12.96;86.21
68276;DHT22;55106;51.438;-0.098;2022-09-27T12:51:09;12.96;85.55
68276;DHT22;55106;51.438;-0.098;2022-09-27T12:56:42;13.14;85.03
68276;DHT22;55106;51.438;-0.098;2022-09-27T13:13:15;13.43;81.03
68276;DHT22;55106;51.438;-0.098;2022-09-27T13:15:43;13.39;80.14
68276;DHT22;55106;51.438;-0.098;2022-09-27T13:21:01;13.30;80.50
68276;DHT22;55106;51.438;-0.098;2022-09-27T13:25:58;13.46;81.77
68276;DHT22;55106;51.438;-0.098;2022-09-27T13:34:39;13.04;83.50
68276;DHT22;55106;51.438;-0.098;2022-09-27T13:45:52;12.83;88.29
68276;DHT22;55106;51.438;-0.098;2022-09-27T13:53:40;12.74;82.64
68276;DHT22;55106;51.438;-0.098;2022-09-27T13:59:04;12.65;84.54
68276;DHT22;55106;51.438;-0.098;2022-09-27T14:01:40;12.74;84.72
68276;DHT22;55106;51.438;-0.098;2022-09-27T14:04:17;12.63;84.39
68276;DHT22;55106;51.438;-0.098;2022-09-27T14:06:46;12.64;84.80
68276;DHT22;55106;51.438;-0.098;2022-09-27T14:09:24;12.75;84.08
68276;DHT22;55106;51.438;-0.098;2022-09-27T14:11:58;12.87;82.13
68276;DHT22;55106;51.438;-0.098;2022-09-27T14:14:26;12.85;82.76
68276;DHT22;55106;51.438;-0.098;2022-09-27T14:16:53;12.75;78.87
68276;DHT22;55106;51.438;-0.098;2022-09-27T14:19:21;12.85;82.90
68276;DHT22;55106;51.438;-0.098;2022-09-27T14:21:47;12.92;80.51
68276;DHT22;55106;51.438;-0.098;2022-09-27T14:24:42;13.08;83.12
68276;DHT22;55106;51.438;-0.098;2022-09-27T14:27:28;13.08;79.66
68276;DHT22;55106;51.438;-0.098;2022-09-27T14:29:59;13.09;80.72
68276;DHT22;55106;51.438;-0.098;2022-09-27T14:32:28;13.08;81.22
68276;DHT22;55106;51.438;-0.098;2022-09-27T14:37:31;13.01;80.92
68276;DHT22;55106;51.438;-0.098;2022-09-27T14:39:57;12.99;81.20
68276;DHT22;55106;51.438;-0.098;2022-09-27T14:42:26;12.95;80.16
68276;DHT22;55106;51.438;-0.098;2022-09-27T14:44:55;12.94;79.92
68276;DHT22;55106;51.438;-0.098;2022-09-27T14:47:25;12.94;80.43
68276;DHT22;55106;51.438;-0.098;2022-09-27T14:49:57;12.89;79.60
68276;DHT22;55106;51.438;-0.098;2022-09-27T14:52:29;12.85;78.19
68276;DHT22;55106;51.438;-0.098;2022-09-27T14:57:32;12.88;81.21
68276;DHT22;55106;51.438;-0.098;2022-09-27T15:00:32;12.99;80.73
68276;DHT22;55106;51.438;-0.098;2022-09-27T15:03:02;13.02;77.86
68276;DHT22;55106;51.438;-0.098;2022-09-27T15:05:32;13.04;79.05
68276;DHT22;55106;51.438;-0.098;2022-09-27T15:08:02;13.01;79.68
68276;DHT22;55106;51.438;-0.098;2022-09-27T15:10:29;13.04;77.30
68276;DHT22;55106;51.438;-0.098;2022-09-27T15:12:57;13.01;75.61
68276;DHT22;55106;51.438;-0.098;2022-09-27T15:15:30;12.95;77.70
68276;DHT22;55106;51.438;-0.098;2022-09-27T15:17:58;12.91;77.67
68276;DHT22;55106;51.438;-0.098;2022-09-27T15:20:27;12.87;78.25
68276;DHT22;55106;51.438;-0.098;2022-09-27T15:22:57;12.73;79.42
68276;DHT22;55106;51.438;-0.098;2022-09-27T15:25:37;12.54;80.50
68276;DHT22;55106;51.438;-0.098;2022-09-27T15:28:16;12.27;83.64
68276;DHT22;55106;51.438;-0.098;2022-09-27T15:30:55;11.98;86.68
68276;DHT22;55106;51.438;-0.098;2022-09-27T15:33:26;11.74;89.21
68276;DHT22;55106;51.438;-0.098;2022-09-27T15:35:54;11.60;90.00
68276;DHT22;55106;51.438;-0.098;2022-09-27T15:41:03;11.57;91.10
68276;DHT22;55106;51.438;-0.098;2022-09-27T15:45:56;11.68;91.27
68276;DHT22;55106;51.438;-0.098;2022-09-27T15:48:22;11.67;91.27
68276;DHT22;55106;51.438;-0.098;2022-09-27T15:50:48;11.64;91.87
68276;DHT22;55106;51.438;-0.098;2022-09-27T15:55:57;11.50;90.78
68276;DHT22;55106;51.438;-0.098;2022-09-27T15:58:23;11.50;91.95
68276;DHT22;55106;51.438;-0.098;2022-09-27T16:00:57;11.48;91.82
68276;DHT22;55106;51.438;-0.098;2022-09-27T16:03:24;11.55;92.44
68276;DHT22;55106;51.438;-0.098;2022-09-27T16:05:50;11.60;92.45
68276;DHT22;55106;51.438;-0.098;2022-09-27T16:08:15;11.64;92.71
68276;DHT22;55106;51.438;-0.098;2022-09-27T16:10:46;11.67;93.00
68276;DHT22;55106;51.438;-0.098;2022-09-27T16:13:12;11.70;93.03
68276;DHT22;55106;51.438;-0.098;2022-09-27T16:15:38;11.65;92.95
68276;DHT22;55106;51.438;-0.098;2022-09-27T16:18:03;11.62;91.65
68276;DHT22;55106;51.438;-0.098;2022-09-27T16:20:29;11.65;92.43
68276;DHT22;55106;51.438;-0.098;2022-09-27T16:22:56;11.55;91.32
68276;DHT22;55106;51.438;-0.098;2022-09-27T16:25:22;11.55;91.55
68276;DHT22;55106;51.438;-0.098;2022-09-27T16:27:47;11.54;92.07
68276;DHT22;55106;51.438;-0.098;2022-09-27T16:30:13;11.54;92.49
68276;DHT22;55106;51.438;-0.098;2022-09-27T16:32:43;11.52;92.44
68276;DHT22;55106;51.438;-0.098;2022-09-27T16:35:10;11.57;92.87
68276;DHT22;55106;51.438;-0.098;2022-09-27T16:37:36;11.55;92.46
68276;DHT22;55106;51.438;-0.098;2022-09-27T16:40:03;11.51;91.74
68276;DHT22;55106;51.438;-0.098;2022-09-27T16:42:29;11.60;92.53
68276;DHT22;55106;51.438;-0.098;2022-09-27T16:44:55;11.58;92.55
68276;DHT22;55106;51.438;-0.098;2022-09-27T16:47:20;11.52;92.37
68276;DHT22;55106;51.438;-0.098;2022-09-27T16:49:45;11.45;92.16
68276;DHT22;55106;51.438;-0.098;2022-09-27T16:52:30;11.43;92.49
68276;DHT22;55106;51.438;-0.098;2022-09-27T16:54:57;11.43;92.52
68276;DHT22;55106;51.438;-0.098;2022-09-27T16:57:23;11.38;92.93
68276;DHT22;55106;51.438;-0.098;2022-09-27T16:59:49;11.33;92.50
68276;DHT22;55106;51.438;-0.098;2022-09-27T17:02:14;11.34;92.43
68276;DHT22;55106;51.438;-0.098;2022-09-27T17:04:40;11.31;92.80
68276;DHT22;55106;51.438;-0.098;2022-09-27T17:07:05;11.27;93.12
68276;DHT22;55106;51.438;-0.098;2022-09-27T17:09:34;11.26;93.09
68276;DHT22;55106;51.438;-0.098;2022-09-27T17:12:00;11.24;93.00
68276;DHT22;55106;51.438;-0.098;2022-09-27T17:14:25;11.23;93.41
68276;DHT22;55106;51.438;-0.098;2022-09-27T17:16:51;11.20;93.66
68276;DHT22;55106;51.438;-0.098;2022-09-27T17:19:17;11.16;93.39
68276;DHT22;55106;51.438;-0.098;2022-09-27T17:21:44;11.04;92.91
68276;DHT22;55106;51.438;-0.098;2022-09-27T17:24:10;10.96;93.36
68276;DHT22;55106;51.438;-0.098;2022-09-27T17:26:35;10.95;93.64
68276;DHT22;55106;51.438;-0.098;2022-09-27T17:29:01;10.92;93.78
68276;DHT22;55106;51.438;-0.098;2022-09-27T17:31:29;10.89;93.98
68276;DHT22;55106;51.438;-0.098;2022-09-27T17:33:55;10.73;93.78
68276;DHT22;55106;51.438;-0.098;2022-09-27T17:36:26;10.64;94.19
68276;DHT22;55106;51.438;-0.098;2022-09-27T17:38:51;10.51;94.34
68276;DHT22;55106;51.438;-0.098;2022-09-27T17:41:22;10.34;94.50
68276;DHT22;55106;51.438;-0.098;2022-09-27T17:43:52;10.24;95.57
68276;DHT22;55106;51.438;-0.098;2022-09-27T17:48:50;10.04;95.56
68276;DHT22;55106;51.438;-0.098;2022-09-27T17:51:37;10.00;95.97
68276;DHT22;55106;51.438;-0.098;2022-09-27T17:54:03;9.96;95.88
68276;DHT22;55106;51.438;-0.098;2022-09-27T17:56:29;9.94;96.28
68276;DHT22;55106;51.438;-0.098;2022-09-27T17:58:57;9.97;96.14
68276;DHT22;55106;51.438;-0.098;2022-09-27T18:01:24;10.01;96.37
68276;DHT22;55106;51.438;-0.098;2022-09-27T18:03:54;10.00;96.06
68276;DHT22;55106;51.438;-0.098;2022-09-27T18:06:19;9.99;95.80
68276;DHT22;55106;51.438;-0.098;2022-09-27T18:08:45;9.90;95.96
68276;DHT22;55106;51.438;-0.098;2022-09-27T18:11:13;9.83;95.82
68276;DHT22;55106;51.438;-0.098;2022-09-27T18:13:40;9.70;95.76